sensor_id;sensor_type;location;lat;lon;timestamp;P1;durP1;ratioP1;P2;durP2;ratioP2
63046;SDS011;62025;39.238;9.126;2022-11-20T00:01:15;22.02;;;11.98;;
63046;SDS011;62025;39.238;9.126;2022-11-20T00:03:44;22.73;;;12.18;;
63046;SDS011;62025;39.238;9.126;2022-11-20T00:06:12;19.85;;;11.00;;
63046;SDS011;62025;39.238;9.126;2022-11-20T00:08:40;18.30;;;10.38;;
63046;SDS011;62025;39.238;9.126;2022-11-20T00:11:08;22.05;;;11.05;;
63046;SDS011;62025;39.238;9.126;2022-11-20T00:13:37;19.08;;;9.98;;
63046;SDS011;62025;39.238;9.126;2022-11-20T00:16:04;19.95;;;10.48;;
63046;SDS011;62025;39.238;9.126;2022-11-20T00:21:06;16.55;;;8.23;;
63046;SDS011;62025;39.238;9.126;2022-11-20T00:23:36;15.70;;;7.65;;
63046;SDS011;62025;39.238;9.126;2022-11-20T00:26:02;23.73;;;7.75;;
63046;SDS011;62025;39.238;9.126;2022-11-20T00:28:33;19.10;;;7.07;;
63046;SDS011;62025;39.238;9.126;2022-11-20T00:31:03;14.18;;;5.43;;
63046;SDS011;62025;39.238;9.126;2022-11-20T00:33:32;10.75;;;4.43;;
63046;SDS011;62025;39.238;9.126;2022-11-20T00:36:03;11.65;;;4.43;;
63046;SDS011;62025;39.238;9.126;2022-11-20T00:38:31;12.68;;;4.57;;
63046;SDS011;62025;39.238;9.126;2022-11-20T00:40:58;12.10;;;3.83;;
63046;SDS011;62025;39.238;9.126;2022-11-20T00:43:26;9.65;;;3.53;;
63046;SDS011;62025;39.238;9.126;2022-11-20T00:45:59;8.70;;;2.65;;
63046;SDS011;62025;39.238;9.126;2022-11-20T00:48:33;10.98;;;2.38;;
63046;SDS011;62025;39.238;9.126;2022-11-20T00:50:59;10.85;;;3.05;;
63046;SDS011;62025;39.238;9.126;2022-11-20T00:53:25;7.97;;;2.95;;
63046;SDS011;62025;39.238;9.126;2022-11-20T00:55:55;12.07;;;3.15;;
63046;SDS011;62025;39.238;9.126;2022-11-20T00:58:28;10.70;;;2.90;;
63046;SDS011;62025;39.238;9.126;2022-11-20T01:01:10;10.73;;;2.20;;
63046;SDS011;62025;39.238;9.126;2022-11-20T01:03:51;11.75;;;2.60;;
63046;SDS011;62025;39.238;9.126;2022-11-20T01:06:27;8.30;;;2.28;;
63046;SDS011;62025;39.238;9.126;2022-11-20T01:08:56;11.68;;;2.50;;
63046;SDS011;62025;39.238;9.126;2022-11-20T01:11:32;7.82;;;2.50;;
63046;SDS011;62025;39.238;9.126;2022-11-20T01:14:01;7.72;;;2.60;;
63046;SDS011;62025;39.238;9.126;2022-11-20T01:16:32;11.13;;;2.25;;
63046;SDS011;62025;39.238;9.126;2022-11-20T01:19:02;6.63;;;1.80;;
63046;SDS011;62025;39.238;9.126;2022-11-20T01:21:32;6.75;;;1.90;;
63046;SDS011;62025;39.238;9.126;2022-11-20T01:24:02;8.00;;;2.25;;
63046;SDS011;62025;39.238;9.126;2022-11-20T01:26:30;4.85;;;2.08;;
63046;SDS011;62025;39.238;9.126;2022-11-20T01:31:27;6.43;;;1.85;;
63046;SDS011;62025;39.238;9.126;2022-11-20T01:34:02;7.25;;;2.30;;
63046;SDS011;62025;39.238;9.126;2022-11-20T01:36:39;5.65;;;1.98;;
63046;SDS011;62025;39.238;9.126;2022-11-20T01:39:09;4.90;;;1.80;;
63046;SDS011;62025;39.238;9.126;2022-11-20T01:41:40;5.35;;;1.67;;
63046;SDS011;62025;39.238;9.126;2022-11-20T01:47:40;7.35;;;1.90;;
63046;SDS011;62025;39.238;9.126;2022-11-20T01:53:00;5.28;;;1.55;;
63046;SDS011;62025;39.238;9.126;2022-11-20T01:55:31;6.40;;;1.73;;
63046;SDS011;62025;39.238;9.126;2022-11-20T01:58:12;3.63;;;1.30;;
63046;SDS011;62025;39.238;9.126;2022-11-20T02:00:39;6.15;;;1.10;;
63046;SDS011;62025;39.238;9.126;2022-11-20T02:03:09;6.60;;;1.80;;
63046;SDS011;62025;39.238;9.126;2022-11-20T02:05:53;4.70;;;1.27;;
63046;SDS011;62025;39.238;9.126;2022-11-20T02:08:29;4.38;;;1.48;;
63046;SDS011;62025;39.238;9.126;2022-11-20T02:10:56;4.60;;;1.25;;
63046;SDS011;62025;39.238;9.126;2022-11-20T02:13:22;4.32;;;1.40;;
63046;SDS011;62025;39.238;9.126;2022-11-20T02:18:47;2.53;;;1.02;;
63046;SDS011;62025;39.238;9.126;2022-11-20T02:24:33;4.93;;;1.20;;
63046;SDS011;62025;39.238;9.126;2022-11-20T02:27:00;2.90;;;1.30;;
63046;SDS011;62025;39.238;9.126;2022-11-20T02:30:13;3.03;;;1.20;;
63046;SDS011;62025;39.238;9.126;2022-11-20T02:32:34;5.25;;;1.70;;
63046;SDS011;62025;39.238;9.126;2022-11-20T02:37:49;4.50;;;1.42;;
63046;SDS011;62025;39.238;9.126;2022-11-20T02:40:18;4.72;;;1.45;;
63046;SDS011;62025;39.238;9.126;2022-11-20T02:42:45;4.20;;;1.13;;
63046;SDS011;62025;39.238;9.126;2022-11-20T02:45:11;4.90;;;1.55;;
63046;SDS011;62025;39.238;9.126;2022-11-20T02:47:37;4.93;;;1.65;;
63046;SDS011;62025;39.238;9.126;2022-11-20T02:50:03;6.32;;;1.38;;
63046;SDS011;62025;39.238;9.126;2022-11-20T02:52:30;6.63;;;1.50;;
63046;SDS011;62025;39.238;9.126;2022-11-20T02:54:56;5.82;;;1.67;;
63046;SDS011;62025;39.238;9.126;2022-11-20T02:57:22;5.22;;;1.40;;
63046;SDS011;62025;39.238;9.126;2022-11-20T02:59:48;3.60;;;1.15;;
63046;SDS011;62025;39.238;9.126;2022-11-20T03:02:14;6.40;;;1.63;;
63046;SDS011;62025;39.238;9.126;2022-11-20T03:04:40;5.97;;;1.45;;
63046;SDS011;62025;39.238;9.126;2022-11-20T03:07:08;4.43;;;1.48;;
63046;SDS011;62025;39.238;9.126;2022-11-20T03:09:35;6.60;;;1.80;;
63046;SDS011;62025;39.238;9.126;2022-11-20T03:12:01;4.85;;;1.52;;
63046;SDS011;62025;39.238;9.126;2022-11-20T03:14:27;5.55;;;2.17;;
63046;SDS011;62025;39.238;9.126;2022-11-20T03:16:53;4.05;;;1.33;;
63046;SDS011;62025;39.238;9.126;2022-11-20T03:19:20;4.38;;;1.83;;
63046;SDS011;62025;39.238;9.126;2022-11-20T03:21:46;6.25;;;1.63;;
63046;SDS011;62025;39.238;9.126;2022-11-20T03:24:12;6.35;;;1.30;;
63046;SDS011;62025;39.238;9.126;2022-11-20T03:26:39;6.07;;;1.85;;
63046;SDS011;62025;39.238;9.126;2022-11-20T03:29:06;3.72;;;1.45;;
63046;SDS011;62025;39.238;9.126;2022-11-20T03:31:33;9.75;;;2.20;;
63046;SDS011;62025;39.238;9.126;2022-11-20T03:34:05;5.10;;;1.60;;
63046;SDS011;62025;39.238;9.126;2022-11-20T03:36:33;6.17;;;1.40;;
63046;SDS011;62025;39.238;9.126;2022-11-20T03:38:59;4.90;;;1.50;;
63046;SDS011;62025;39.238;9.126;2022-11-20T03:41:27;5.45;;;1.67;;
63046;SDS011;62025;39.238;9.126;2022-11-20T03:43:59;5.78;;;1.30;;
63046;SDS011;62025;39.238;9.126;2022-11-20T03:46:28;4.72;;;1.40;;
63046;SDS011;62025;39.238;9.126;2022-11-20T03:48:54;5.13;;;1.38;;
63046;SDS011;62025;39.238;9.126;2022-11-20T03:51:22;6.05;;;1.67;;
63046;SDS011;62025;39.238;9.126;2022-11-20T03:54:01;4.78;;;1.42;;
63046;SDS011;62025;39.238;9.126;2022-11-20T03:56:33;5.03;;;1.50;;
63046;SDS011;62025;39.238;9.126;2022-11-20T03:59:03;5.82;;;1.67;;
63046;SDS011;62025;39.238;9.126;2022-11-20T04:01:31;7.28;;;2.03;;
63046;SDS011;62025;39.238;9.126;2022-11-20T04:04:04;5.15;;;1.52;;
63046;SDS011;62025;39.238;9.126;2022-11-20T04:06:34;6.40;;;2.47;;
63046;SDS011;62025;39.238;9.126;2022-11-20T04:09:03;6.03;;;1.80;;
63046;SDS011;62025;39.238;9.126;2022-11-20T04:11:31;6.90;;;1.63;;
63046;SDS011;62025;39.238;9.126;2022-11-20T04:14:02;4.43;;;1.35;;
63046;SDS011;62025;39.238;9.126;2022-11-20T04:16:31;5.68;;;1.60;;
63046;SDS011;62025;39.238;9.126;2022-11-20T04:19:01;4.50;;;1.48;;
63046;SDS011;62025;39.238;9.126;2022-11-20T04:21:30;4.20;;;1.60;;
63046;SDS011;62025;39.238;9.126;2022-11-20T04:23:56;5.35;;;1.52;;
63046;SDS011;62025;39.238;9.126;2022-11-20T04:26:23;4.07;;;1.40;;
63046;SDS011;62025;39.238;9.126;2022-11-20T04:28:52;3.80;;;1.40;;
63046;SDS011;62025;39.238;9.126;2022-11-20T04:31:20;5.82;;;1.38;;
63046;SDS011;62025;39.238;9.126;2022-11-20T04:33:48;5.82;;;1.73;;
63046;SDS011;62025;39.238;9.126;2022-11-20T04:36:16;5.30;;;1.63;;
63046;SDS011;62025;39.238;9.126;2022-11-20T04:38:54;10.07;;;1.90;;
63046;SDS011;62025;39.238;9.126;2022-11-20T04:41:27;5.40;;;1.33;;
63046;SDS011;62025;39.238;9.126;2022-11-20T04:43:57;8.07;;;2.05;;
63046;SDS011;62025;39.238;9.126;2022-11-20T04:46:27;5.85;;;1.52;;
63046;SDS011;62025;39.238;9.126;2022-11-20T04:48:56;3.60;;;1.65;;
63046;SDS011;62025;39.238;9.126;2022-11-20T04:51:23;5.75;;;1.60;;
63046;SDS011;62025;39.238;9.126;2022-11-20T04:53:49;3.20;;;1.35;;
63046;SDS011;62025;39.238;9.126;2022-11-20T04:56:15;6.28;;;1.70;;
63046;SDS011;62025;39.238;9.126;2022-11-20T04:58:41;8.55;;;1.60;;
63046;SDS011;62025;39.238;9.126;2022-11-20T05:01:12;5.50;;;1.77;;
63046;SDS011;62025;39.238;9.126;2022-11-20T05:03:44;8.77;;;1.70;;
63046;SDS011;62025;39.238;9.126;2022-11-20T05:06:11;8.50;;;1.52;;
63046;SDS011;62025;39.238;9.126;2022-11-20T05:08:40;5.93;;;1.55;;
63046;SDS011;62025;39.238;9.126;2022-11-20T05:11:08;5.68;;;1.70;;
63046;SDS011;62025;39.238;9.126;2022-11-20T05:13:40;3.70;;;1.38;;
63046;SDS011;62025;39.238;9.126;2022-11-20T05:16:07;7.40;;;1.75;;
63046;SDS011;62025;39.238;9.126;2022-11-20T05:18:36;4.72;;;1.50;;
63046;SDS011;62025;39.238;9.126;2022-11-20T05:21:03;5.45;;;1.77;;
63046;SDS011;62025;39.238;9.126;2022-11-20T05:23:30;6.07;;;1.67;;
63046;SDS011;62025;39.238;9.126;2022-11-20T05:25:57;3.35;;;1.30;;
63046;SDS011;62025;39.238;9.126;2022-11-20T05:28:24;5.82;;;2.15;;
63046;SDS011;62025;39.238;9.126;2022-11-20T05:30:52;5.23;;;1.23;;
63046;SDS011;62025;39.238;9.126;2022-11-20T05:33:18;7.78;;;1.50;;
63046;SDS011;62025;39.238;9.126;2022-11-20T05:35:44;7.95;;;2.10;;
63046;SDS011;62025;39.238;9.126;2022-11-20T05:38:10;8.07;;;1.80;;
63046;SDS011;62025;39.238;9.126;2022-11-20T05:40:37;7.82;;;1.73;;
63046;SDS011;62025;39.238;9.126;2022-11-20T05:43:03;7.07;;;1.38;;
63046;SDS011;62025;39.238;9.126;2022-11-20T05:45:29;5.25;;;1.63;;
63046;SDS011;62025;39.238;9.126;2022-11-20T05:47:58;4.35;;;1.30;;
63046;SDS011;62025;39.238;9.126;2022-11-20T05:50:26;6.75;;;1.98;;
63046;SDS011;62025;39.238;9.126;2022-11-20T05:52:53;5.85;;;1.45;;
63046;SDS011;62025;39.238;9.126;2022-11-20T05:55:19;7.03;;;1.75;;
63046;SDS011;62025;39.238;9.126;2022-11-20T05:57:45;5.65;;;2.17;;
63046;SDS011;62025;39.238;9.126;2022-11-20T06:00:11;6.95;;;1.63;;
63046;SDS011;62025;39.238;9.126;2022-11-20T06:02:40;6.78;;;1.63;;
63046;SDS011;62025;39.238;9.126;2022-11-20T06:05:06;8.45;;;1.50;;
63046;SDS011;62025;39.238;9.126;2022-11-20T06:07:33;9.20;;;1.90;;
63046;SDS011;62025;39.238;9.126;2022-11-20T06:09:59;8.95;;;1.77;;
63046;SDS011;62025;39.238;9.126;2022-11-20T06:12:24;9.00;;;1.60;;
63046;SDS011;62025;39.238;9.126;2022-11-20T06:14:50;7.70;;;1.92;;
63046;SDS011;62025;39.238;9.126;2022-11-20T06:17:16;5.28;;;1.40;;
63046;SDS011;62025;39.238;9.126;2022-11-20T06:19:42;8.10;;;2.17;;
63046;SDS011;62025;39.238;9.126;2022-11-20T06:22:08;8.63;;;1.70;;
63046;SDS011;62025;39.238;9.126;2022-11-20T06:24:34;8.35;;;2.03;;
63046;SDS011;62025;39.238;9.126;2022-11-20T06:27:00;8.25;;;1.60;;
63046;SDS011;62025;39.238;9.126;2022-11-20T06:29:26;6.18;;;1.58;;
63046;SDS011;62025;39.238;9.126;2022-11-20T06:31:52;7.07;;;1.80;;
63046;SDS011;62025;39.238;9.126;2022-11-20T06:34:18;6.72;;;1.70;;
63046;SDS011;62025;39.238;9.126;2022-11-20T06:36:44;5.07;;;1.60;;
63046;SDS011;62025;39.238;9.126;2022-11-20T06:39:10;11.82;;;1.75;;
63046;SDS011;62025;39.238;9.126;2022-11-20T06:41:36;8.60;;;1.90;;
63046;SDS011;62025;39.238;9.126;2022-11-20T06:44:03;5.80;;;1.67;;
63046;SDS011;62025;39.238;9.126;2022-11-20T06:46:30;4.20;;;1.60;;
63046;SDS011;62025;39.238;9.126;2022-11-20T06:48:57;7.32;;;1.92;;
63046;SDS011;62025;39.238;9.126;2022-11-20T06:51:23;4.57;;;1.42;;
63046;SDS011;62025;39.238;9.126;2022-11-20T06:53:49;3.13;;;1.70;;
63046;SDS011;62025;39.238;9.126;2022-11-20T06:56:15;6.85;;;1.75;;
63046;SDS011;62025;39.238;9.126;2022-11-20T06:58:41;13.30;;;2.28;;
63046;SDS011;62025;39.238;9.126;2022-11-20T07:01:09;9.20;;;1.77;;
63046;SDS011;62025;39.238;9.126;2022-11-20T07:03:38;8.32;;;1.80;;
63046;SDS011;62025;39.238;9.126;2022-11-20T07:06:04;4.93;;;1.60;;
63046;SDS011;62025;39.238;9.126;2022-11-20T07:08:31;9.93;;;2.08;;
63046;SDS011;62025;39.238;9.126;2022-11-20T07:11:02;7.78;;;1.65;;
63046;SDS011;62025;39.238;9.126;2022-11-20T07:13:30;10.20;;;1.70;;
63046;SDS011;62025;39.238;9.126;2022-11-20T07:16:00;6.13;;;1.63;;
63046;SDS011;62025;39.238;9.126;2022-11-20T07:18:29;8.73;;;2.05;;
63046;SDS011;62025;39.238;9.126;2022-11-20T07:20:55;7.35;;;1.80;;
63046;SDS011;62025;39.238;9.126;2022-11-20T07:23:25;6.78;;;2.20;;
63046;SDS011;62025;39.238;9.126;2022-11-20T07:25:51;7.55;;;1.52;;
63046;SDS011;62025;39.238;9.126;2022-11-20T07:28:17;7.38;;;1.65;;
63046;SDS011;62025;39.238;9.126;2022-11-20T07:30:48;7.15;;;2.35;;
63046;SDS011;62025;39.238;9.126;2022-11-20T07:33:16;5.47;;;1.65;;
63046;SDS011;62025;39.238;9.126;2022-11-20T07:35:42;10.27;;;2.17;;
63046;SDS011;62025;39.238;9.126;2022-11-20T07:38:08;6.63;;;1.90;;
63046;SDS011;62025;39.238;9.126;2022-11-20T07:40:34;7.40;;;1.55;;
63046;SDS011;62025;39.238;9.126;2022-11-20T07:43:00;6.47;;;1.70;;
63046;SDS011;62025;39.238;9.126;2022-11-20T07:45:26;13.48;;;3.05;;
63046;SDS011;62025;39.238;9.126;2022-11-20T07:47:52;8.27;;;1.95;;
63046;SDS011;62025;39.238;9.126;2022-11-20T07:50:18;7.25;;;1.92;;
63046;SDS011;62025;39.238;9.126;2022-11-20T07:52:45;8.15;;;1.80;;
63046;SDS011;62025;39.238;9.126;2022-11-20T07:55:11;4.72;;;1.75;;
63046;SDS011;62025;39.238;9.126;2022-11-20T07:57:37;11.43;;;2.22;;
63046;SDS011;62025;39.238;9.126;2022-11-20T08:00:04;6.88;;;2.28;;
63046;SDS011;62025;39.238;9.126;2022-11-20T08:02:39;15.20;;;3.33;;
63046;SDS011;62025;39.238;9.126;2022-11-20T08:05:06;7.88;;;2.10;;
63046;SDS011;62025;39.238;9.126;2022-11-20T08:07:40;7.85;;;2.60;;
63046;SDS011;62025;39.238;9.126;2022-11-20T08:10:08;8.23;;;2.15;;
63046;SDS011;62025;39.238;9.126;2022-11-20T08:12:47;9.90;;;2.30;;
63046;SDS011;62025;39.238;9.126;2022-11-20T08:18:04;12.23;;;2.10;;
63046;SDS011;62025;39.238;9.126;2022-11-20T08:20:37;10.40;;;2.30;;
63046;SDS011;62025;39.238;9.126;2022-11-20T08:23:04;10.95;;;1.92;;
63046;SDS011;62025;39.238;9.126;2022-11-20T08:25:32;10.40;;;1.90;;
63046;SDS011;62025;39.238;9.126;2022-11-20T08:28:01;9.50;;;2.40;;
63046;SDS011;62025;39.238;9.126;2022-11-20T08:30:31;8.23;;;1.85;;
63046;SDS011;62025;39.238;9.126;2022-11-20T08:33:02;8.50;;;2.00;;
63046;SDS011;62025;39.238;9.126;2022-11-20T08:35:34;8.45;;;2.65;;
63046;SDS011;62025;39.238;9.126;2022-11-20T08:38:04;7.18;;;2.10;;
63046;SDS011;62025;39.238;9.126;2022-11-20T08:40:32;8.98;;;2.22;;
63046;SDS011;62025;39.238;9.126;2022-11-20T08:42:58;12.15;;;2.72;;
63046;SDS011;62025;39.238;9.126;2022-11-20T08:45:24;10.40;;;2.38;;
63046;SDS011;62025;39.238;9.126;2022-11-20T08:47:50;11.70;;;3.22;;
63046;SDS011;62025;39.238;9.126;2022-11-20T08:50:17;9.52;;;2.15;;
63046;SDS011;62025;39.238;9.126;2022-11-20T08:52:43;12.00;;;2.70;;
63046;SDS011;62025;39.238;9.126;2022-11-20T08:55:09;10.07;;;2.75;;
63046;SDS011;62025;39.238;9.126;2022-11-20T08:57:35;33.10;;;4.15;;
63046;SDS011;62025;39.238;9.126;2022-11-20T09:00:03;9.32;;;3.08;;
63046;SDS011;62025;39.238;9.126;2022-11-20T09:02:32;9.95;;;3.13;;
63046;SDS011;62025;39.238;9.126;2022-11-20T09:04:58;14.27;;;2.63;;
63046;SDS011;62025;39.238;9.126;2022-11-20T09:07:24;8.38;;;2.65;;
63046;SDS011;62025;39.238;9.126;2022-11-20T09:09:50;8.27;;;2.60;;
63046;SDS011;62025;39.238;9.126;2022-11-20T09:12:16;8.43;;;2.50;;
63046;SDS011;62025;39.238;9.126;2022-11-20T09:14:42;12.05;;;2.88;;
63046;SDS011;62025;39.238;9.126;2022-11-20T09:17:09;13.25;;;2.67;;
63046;SDS011;62025;39.238;9.126;2022-11-20T09:19:38;10.88;;;3.20;;
63046;SDS011;62025;39.238;9.126;2022-11-20T09:22:05;7.85;;;2.42;;
63046;SDS011;62025;39.238;9.126;2022-11-20T09:24:31;10.48;;;2.60;;
63046;SDS011;62025;39.238;9.126;2022-11-20T09:26:57;10.05;;;2.60;;
63046;SDS011;62025;39.238;9.126;2022-11-20T09:29:23;11.60;;;2.45;;
63046;SDS011;62025;39.238;9.126;2022-11-20T09:31:49;6.15;;;1.92;;
63046;SDS011;62025;39.238;9.126;2022-11-20T09:34:15;10.30;;;2.60;;
63046;SDS011;62025;39.238;9.126;2022-11-20T09:36:41;8.85;;;2.30;;
63046;SDS011;62025;39.238;9.126;2022-11-20T09:39:07;7.35;;;1.85;;
63046;SDS011;62025;39.238;9.126;2022-11-20T09:41:36;12.43;;;2.00;;
63046;SDS011;62025;39.238;9.126;2022-11-20T09:47:38;8.60;;;2.15;;
63046;SDS011;62025;39.238;9.126;2022-11-20T09:50:49;9.32;;;2.10;;
63046;SDS011;62025;39.238;9.126;2022-11-20T09:58:54;10.38;;;1.77;;
63046;SDS011;62025;39.238;9.126;2022-11-20T10:01:26;10.52;;;1.88;;
63046;SDS011;62025;39.238;9.126;2022-11-20T10:04:03;9.45;;;1.90;;
63046;SDS011;62025;39.238;9.126;2022-11-20T10:06:41;12.90;;;1.88;;
63046;SDS011;62025;39.238;9.126;2022-11-20T10:09:34;9.32;;;1.75;;
63046;SDS011;62025;39.238;9.126;2022-11-20T10:12:19;16.17;;;2.10;;
63046;SDS011;62025;39.238;9.126;2022-11-20T10:27:03;8.25;;;2.58;;
63046;SDS011;62025;39.238;9.126;2022-11-20T10:29:12;11.15;;;1.80;;
63046;SDS011;62025;39.238;9.126;2022-11-20T10:31:48;6.10;;;1.40;;
63046;SDS011;62025;39.238;9.126;2022-11-20T10:34:23;7.53;;;1.30;;
63046;SDS011;62025;39.238;9.126;2022-11-20T10:42:34;7.20;;;1.75;;
63046;SDS011;62025;39.238;9.126;2022-11-20T10:45:31;8.48;;;1.90;;
63046;SDS011;62025;39.238;9.126;2022-11-20T10:48:24;5.40;;;1.67;;
63046;SDS011;62025;39.238;9.126;2022-11-20T10:51:13;6.70;;;1.60;;
63046;SDS011;62025;39.238;9.126;2022-11-20T10:56:53;3.58;;;1.20;;
63046;SDS011;62025;39.238;9.126;2022-11-20T11:02:58;8.75;;;1.70;;
63046;SDS011;62025;39.238;9.126;2022-11-20T11:08:18;8.48;;;1.60;;
63046;SDS011;62025;39.238;9.126;2022-11-20T11:10:51;9.52;;;1.70;;
63046;SDS011;62025;39.238;9.126;2022-11-20T11:13:49;6.57;;;2.03;;
63046;SDS011;62025;39.238;9.126;2022-11-20T11:16:19;10.02;;;2.00;;
63046;SDS011;62025;39.238;9.126;2022-11-20T11:18:50;11.43;;;2.05;;
63046;SDS011;62025;39.238;9.126;2022-11-20T11:21:37;9.00;;;1.90;;
63046;SDS011;62025;39.238;9.126;2022-11-20T11:24:15;11.60;;;2.13;;
63046;SDS011;62025;39.238;9.126;2022-11-20T11:29:32;7.85;;;1.65;;
63046;SDS011;62025;39.238;9.126;2022-11-20T11:32:14;4.97;;;1.50;;
63046;SDS011;62025;39.238;9.126;2022-11-20T11:34:58;9.32;;;1.98;;
63046;SDS011;62025;39.238;9.126;2022-11-20T11:37:34;7.20;;;1.75;;
63046;SDS011;62025;39.238;9.126;2022-11-20T11:40:04;7.53;;;1.65;;
63046;SDS011;62025;39.238;9.126;2022-11-20T11:42:34;9.60;;;1.98;;
63046;SDS011;62025;39.238;9.126;2022-11-20T11:45:00;4.82;;;1.45;;
63046;SDS011;62025;39.238;9.126;2022-11-20T11:47:36;8.27;;;1.90;;
63046;SDS011;62025;39.238;9.126;2022-11-20T11:52:40;11.68;;;2.97;;
63046;SDS011;62025;39.238;9.126;2022-11-20T11:55:25;10.27;;;2.05;;
63046;SDS011;62025;39.238;9.126;2022-11-20T12:00:55;8.18;;;2.17;;
63046;SDS011;62025;39.238;9.126;2022-11-20T12:03:32;7.03;;;1.90;;
63046;SDS011;62025;39.238;9.126;2022-11-20T12:06:06;10.30;;;1.75;;
63046;SDS011;62025;39.238;9.126;2022-11-20T12:16:58;9.05;;;1.90;;
63046;SDS011;62025;39.238;9.126;2022-11-20T12:19:28;16.10;;;3.00;;
63046;SDS011;62025;39.238;9.126;2022-11-20T12:22:35;6.00;;;1.60;;
63046;SDS011;62025;39.238;9.126;2022-11-20T13:01:39;5.97;;;1.92;;
63046;SDS011;62025;39.238;9.126;2022-11-20T13:04:59;7.95;;;1.90;;
63046;SDS011;62025;39.238;9.126;2022-11-20T13:07:15;7.80;;;1.30;;
63046;SDS011;62025;39.238;9.126;2022-11-20T13:09:43;9.00;;;2.22;;
63046;SDS011;62025;39.238;9.126;2022-11-20T13:12:16;10.13;;;2.20;;
63046;SDS011;62025;39.238;9.126;2022-11-20T13:18:02;7.35;;;2.05;;
63046;SDS011;62025;39.238;9.126;2022-11-20T13:20:36;6.72;;;1.90;;
63046;SDS011;62025;39.238;9.126;2022-11-20T13:23:09;15.52;;;2.30;;
63046;SDS011;62025;39.238;9.126;2022-11-20T13:25:39;6.97;;;1.63;;
63046;SDS011;62025;39.238;9.126;2022-11-20T13:30:34;8.32;;;2.03;;
63046;SDS011;62025;39.238;9.126;2022-11-20T13:33:09;7.90;;;2.03;;
63046;SDS011;62025;39.238;9.126;2022-11-20T13:38:28;8.85;;;2.03;;
63046;SDS011;62025;39.238;9.126;2022-11-20T13:41:09;7.45;;;2.25;;
63046;SDS011;62025;39.238;9.126;2022-11-20T13:44:20;7.50;;;1.80;;
63046;SDS011;62025;39.238;9.126;2022-11-20T13:47:02;6.70;;;1.88;;
63046;SDS011;62025;39.238;9.126;2022-11-20T13:49:31;5.78;;;1.50;;
63046;SDS011;62025;39.238;9.126;2022-11-20T14:01:19;6.25;;;1.90;;
63046;SDS011;62025;39.238;9.126;2022-11-20T14:03:47;8.48;;;2.20;;
63046;SDS011;62025;39.238;9.126;2022-11-20T14:08:57;7.72;;;2.53;;
63046;SDS011;62025;39.238;9.126;2022-11-20T14:11:26;7.85;;;2.10;;
63046;SDS011;62025;39.238;9.126;2022-11-20T14:13:55;6.25;;;2.63;;
63046;SDS011;62025;39.238;9.126;2022-11-20T14:16:29;7.40;;;2.20;;
63046;SDS011;62025;39.238;9.126;2022-11-20T14:21:45;7.32;;;1.45;;
63046;SDS011;62025;39.238;9.126;2022-11-20T14:24:21;9.18;;;2.92;;
63046;SDS011;62025;39.238;9.126;2022-11-20T14:26:49;7.22;;;2.83;;
63046;SDS011;62025;39.238;9.126;2022-11-20T14:29:17;4.50;;;1.90;;
63046;SDS011;62025;39.238;9.126;2022-11-20T14:31:52;4.63;;;1.60;;
63046;SDS011;62025;39.238;9.126;2022-11-20T14:34:21;3.67;;;1.25;;
63046;SDS011;62025;39.238;9.126;2022-11-20T14:37:01;5.97;;;1.77;;
63046;SDS011;62025;39.238;9.126;2022-11-20T14:39:37;3.90;;;1.50;;
63046;SDS011;62025;39.238;9.126;2022-11-20T14:42:18;7.35;;;1.40;;
63046;SDS011;62025;39.238;9.126;2022-11-20T14:44:52;2.72;;;1.38;;
63046;SDS011;62025;39.238;9.126;2022-11-20T14:47:25;5.10;;;1.15;;
63046;SDS011;62025;39.238;9.126;2022-11-20T14:49:56;3.08;;;1.20;;
63046;SDS011;62025;39.238;9.126;2022-11-20T14:52:24;4.30;;;1.40;;
63046;SDS011;62025;39.238;9.126;2022-11-20T14:54:56;5.53;;;1.20;;
63046;SDS011;62025;39.238;9.126;2022-11-20T14:57:31;5.65;;;1.58;;
63046;SDS011;62025;39.238;9.126;2022-11-20T15:02:50;3.55;;;1.33;;
63046;SDS011;62025;39.238;9.126;2022-11-20T15:05:25;5.55;;;1.65;;
63046;SDS011;62025;39.238;9.126;2022-11-20T15:08:13;4.57;;;1.42;;
63046;SDS011;62025;39.238;9.126;2022-11-20T15:10:50;5.28;;;1.45;;
63046;SDS011;62025;39.238;9.126;2022-11-20T15:13:24;6.57;;;1.90;;
63046;SDS011;62025;39.238;9.126;2022-11-20T15:15:56;6.97;;;1.30;;
63046;SDS011;62025;39.238;9.126;2022-11-20T15:20:57;4.93;;;1.40;;
63046;SDS011;62025;39.238;9.126;2022-11-20T15:23:27;8.43;;;2.05;;
63046;SDS011;62025;39.238;9.126;2022-11-20T15:25:54;3.10;;;1.38;;
63046;SDS011;62025;39.238;9.126;2022-11-20T15:28:31;4.78;;;2.08;;
63046;SDS011;62025;39.238;9.126;2022-11-20T15:31:14;8.05;;;1.33;;
63046;SDS011;62025;39.238;9.126;2022-11-20T15:33:46;4.68;;;1.48;;
63046;SDS011;62025;39.238;9.126;2022-11-20T15:36:13;4.25;;;1.10;;
63046;SDS011;62025;39.238;9.126;2022-11-20T15:38:39;5.03;;;1.42;;
63046;SDS011;62025;39.238;9.126;2022-11-20T15:41:05;5.80;;;2.00;;
63046;SDS011;62025;39.238;9.126;2022-11-20T15:43:32;6.75;;;2.10;;
63046;SDS011;62025;39.238;9.126;2022-11-20T15:45:59;5.22;;;1.80;;
63046;SDS011;62025;39.238;9.126;2022-11-20T15:48:34;7.82;;;2.13;;
63046;SDS011;62025;39.238;9.126;2022-11-20T15:51:31;6.32;;;1.83;;
63046;SDS011;62025;39.238;9.126;2022-11-20T15:54:17;8.27;;;2.00;;
63046;SDS011;62025;39.238;9.126;2022-11-20T15:56:46;4.20;;;2.00;;
63046;SDS011;62025;39.238;9.126;2022-11-20T15:59:19;7.22;;;2.67;;
63046;SDS011;62025;39.238;9.126;2022-11-20T16:01:45;5.05;;;1.77;;
63046;SDS011;62025;39.238;9.126;2022-11-20T16:04:12;7.50;;;2.08;;
63046;SDS011;62025;39.238;9.126;2022-11-20T16:09:06;9.00;;;1.95;;
63046;SDS011;62025;39.238;9.126;2022-11-20T16:11:33;6.30;;;1.77;;
63046;SDS011;62025;39.238;9.126;2022-11-20T16:14:02;6.15;;;1.92;;
63046;SDS011;62025;39.238;9.126;2022-11-20T16:16:49;10.73;;;1.70;;
63046;SDS011;62025;39.238;9.126;2022-11-20T16:19:16;6.63;;;1.73;;
63046;SDS011;62025;39.238;9.126;2022-11-20T16:21:43;9.52;;;2.15;;
63046;SDS011;62025;39.238;9.126;2022-11-20T16:24:11;12.80;;;2.10;;
63046;SDS011;62025;39.238;9.126;2022-11-20T16:26:39;7.43;;;1.80;;
63046;SDS011;62025;39.238;9.126;2022-11-20T16:29:06;7.68;;;1.85;;
63046;SDS011;62025;39.238;9.126;2022-11-20T16:31:32;9.70;;;1.90;;
63046;SDS011;62025;39.238;9.126;2022-11-20T16:33:59;8.95;;;1.90;;
63046;SDS011;62025;39.238;9.126;2022-11-20T16:36:28;8.82;;;2.17;;
63046;SDS011;62025;39.238;9.126;2022-11-20T16:39:00;11.98;;;1.92;;
63046;SDS011;62025;39.238;9.126;2022-11-20T16:41:29;10.43;;;2.30;;
63046;SDS011;62025;39.238;9.126;2022-11-20T16:43:58;10.88;;;1.58;;
63046;SDS011;62025;39.238;9.126;2022-11-20T16:46:27;7.30;;;1.65;;
63046;SDS011;62025;39.238;9.126;2022-11-20T16:51:26;8.07;;;1.55;;
63046;SDS011;62025;39.238;9.126;2022-11-20T16:53:54;12.52;;;2.10;;
63046;SDS011;62025;39.238;9.126;2022-11-20T16:56:22;8.45;;;2.15;;
63046;SDS011;62025;39.238;9.126;2022-11-20T16:58:50;13.60;;;3.85;;
63046;SDS011;62025;39.238;9.126;2022-11-20T17:01:19;8.88;;;2.65;;
63046;SDS011;62025;39.238;9.126;2022-11-20T17:03:52;12.32;;;3.30;;
63046;SDS011;62025;39.238;9.126;2022-11-20T17:06:21;11.70;;;2.92;;
63046;SDS011;62025;39.238;9.126;2022-11-20T17:08:49;9.10;;;3.15;;
63046;SDS011;62025;39.238;9.126;2022-11-20T17:11:16;10.13;;;2.45;;
63046;SDS011;62025;39.238;9.126;2022-11-20T17:13:44;8.95;;;2.47;;
63046;SDS011;62025;39.238;9.126;2022-11-20T17:16:12;9.27;;;2.33;;
63046;SDS011;62025;39.238;9.126;2022-11-20T17:18:41;11.50;;;2.33;;
63046;SDS011;62025;39.238;9.126;2022-11-20T17:21:08;12.90;;;2.33;;
63046;SDS011;62025;39.238;9.126;2022-11-20T17:23:39;9.23;;;2.22;;
63046;SDS011;62025;39.238;9.126;2022-11-20T17:26:09;9.77;;;2.50;;
63046;SDS011;62025;39.238;9.126;2022-11-20T17:28:46;7.82;;;1.73;;
63046;SDS011;62025;39.238;9.126;2022-11-20T17:31:24;10.05;;;1.80;;